Time;durP1;ratioP1;P1;durP2;ratioP2;P2;SDS_P1;SDS_P2;PMS_P1;PMS_P2;Temp;Humidity;BMP_temperature;BMP_pressure;BME280_temperature;BME280_humidity;BME280_pressure;Samples;Min_cycle;Max_cycle;Signal;HPM_P1;HPM_P2
2023/07/30 00:03:15;;;;;;;2.10;0.70;;;;;;;20.00;75.25;99698.66;10504500;28;20075;-74
2023/07/30 00:08:16;;;;;;;0.70;0.50;;;;;;;19.94;74.81;99701.56;10498620;28;20591;-73
2023/07/30 00:13:17;;;;;;;0.93;0.60;;;;;;;19.86;75.02;99708.28;10502542;28;20071;-74
2023/07/30 00:18:19;;;;;;;1.75;0.60;;;;;;;19.87;74.94;99711.84;10501664;28;20044;-75
2023/07/30 00:23:20;;;;;;;2.88;0.60;;;;;;;19.93;74.57;99703.47;10503681;28;20056;-73
2023/07/30 00:28:22;;;;;;;3.45;0.88;;;;;;;19.99;74.24;99697.00;10501674;28;20063;-73
2023/07/30 00:33:24;;;;;;;3.20;1.05;;;;;;;19.98;74.32;99710.88;10500083;28;20112;-72
2023/07/30 00:38:25;;;;;;;1.08;0.80;;;;;;;19.95;74.39;99703.22;10503976;28;20079;-73
2023/07/30 00:43:26;;;;;;;1.67;0.93;;;;;;;19.92;74.34;99711.91;10502652;28;20226;-74
2023/07/30 00:48:29;;;;;;;1.08;0.70;;;;;;;19.95;73.84;99714.94;10501130;28;20079;-72
2023/07/30 00:53:30;;;;;;;1.17;0.60;;;;;;;19.95;74.33;99717.69;10498980;28;20392;-74
2023/07/30 00:58:33;;;;;;;2.13;0.95;;;;;;;19.86;74.56;99724.66;10497283;28;20115;-75
2023/07/30 01:03:34;;;;;;;1.35;0.70;;;;;;;19.92;74.32;99728.28;10498175;28;20041;-72
2023/07/30 01:08:36;;;;;;;1.52;0.73;;;;;;;20.07;74.09;99733.94;10498432;28;20122;-75
2023/07/30 01:13:38;;;;;;;0.80;0.60;;;;;;;20.26;73.88;99737.16;10503038;28;20064;-73
2023/07/30 01:18:40;;;;;;;2.22;1.08;;;;;;;20.39;73.11;99746.84;10496985;28;20044;-74
2023/07/30 01:23:41;;;;;;;2.33;0.77;;;;;;;20.46;72.93;99739.31;10498369;28;20048;-75
2023/07/30 01:28:48;;;;;;;1.75;0.80;;;;;;;20.45;73.25;99743.09;10501977;28;20040;-73
2023/07/30 01:33:54;;;;;;;3.63;1.10;;;;;;;20.36;73.09;99761.03;10501788;28;20044;-74
2023/07/30 01:38:56;;;;;;;0.90;0.50;;;;;;;20.27;73.24;99768.00;10500731;28;20099;-73
2023/07/30 01:43:57;;;;;;;1.02;0.80;;;;;;;20.27;73.51;99785.19;10500172;28;20052;-72
2023/07/30 01:48:59;;;;;;;1.00;0.60;;;;;;;20.33;72.97;99786.09;10497286;28;20349;-73
2023/07/30 01:54:00;;;;;;;1.25;0.70;;;;;;;20.40;73.30;99775.81;10500687;28;20036;-75
2023/07/30 01:59:02;;;;;;;1.33;0.63;;;;;;;20.40;73.03;99789.47;10501259;28;20044;-72
2023/07/30 02:04:03;;;;;;;1.08;0.80;;;;;;;20.46;72.72;99779.41;10498502;28;20275;-73
2023/07/30 02:09:05;;;;;;;3.72;0.80;;;;;;;20.56;72.87;99790.47;10501506;28;20048;-74
2023/07/30 02:14:06;;;;;;;1.25;0.82;;;;;;;20.61;72.74;99790.53;10503462;28;20060;-74
2023/07/30 02:19:08;;;;;;;1.33;0.70;;;;;;;20.66;72.36;99808.91;10501779;28;20159;-74
2023/07/30 02:24:11;;;;;;;4.95;1.00;;;;;;;20.58;72.51;99801.97;10506647;28;20452;-74
2023/07/30 02:29:12;;;;;;;2.53;1.05;;;;;;;20.47;73.36;99809.19;10508777;28;20056;-72
2023/07/30 02:34:14;;;;;;;1.63;0.90;;;;;;;20.41;73.14;99819.22;10508398;28;20060;-74
2023/07/30 02:39:15;;;;;;;2.05;0.98;;;;;;;20.40;73.60;99814.84;10503833;28;20111;-76
2023/07/30 02:44:16;;;;;;;3.97;0.80;;;;;;;20.37;74.09;99822.72;10505918;28;20289;-73
2023/07/30 02:49:18;;;;;;;6.18;1.52;;;;;;;20.32;74.42;99823.50;10523571;28;20093;-73
2023/07/30 02:54:21;;;;;;;3.20;1.00;;;;;;;20.35;74.63;99824.88;10507631;28;20078;-74
2023/07/30 02:59:23;;;;;;;1.50;0.80;;;;;;;20.29;74.52;99834.91;10505831;28;20302;-76
2023/07/30 03:04:24;;;;;;;2.75;1.10;;;;;;;20.21;74.15;99852.53;10501601;28;20102;-74
2023/07/30 03:09:27;;;;;;;1.38;0.60;;;;;;;20.03;74.87;99839.19;10504521;28;20079;-74
2023/07/30 03:14:29;;;;;;;2.97;1.05;;;;;;;19.95;75.43;99856.00;10501894;28;20052;-76
2023/07/30 03:19:31;;;;;;;3.33;0.80;;;;;;;20.03;75.02;99852.03;10505274;28;20055;-76
2023/07/30 03:24:32;;;;;;;4.13;0.80;;;;;;;20.04;75.01;99849.03;10502014;28;20126;-74
2023/07/30 03:29:34;;;;;;;2.47;1.00;;;;;;;20.04;74.84;99849.03;10500286;28;20116;-75
2023/07/30 03:34:35;;;;;;;1.23;0.90;;;;;;;20.06;74.76;99851.50;10503793;28;20105;-74
2023/07/30 03:39:36;;;;;;;1.50;0.88;;;;;;;19.98;75.51;99844.56;10503124;28;20045;-75
2023/07/30 03:44:38;;;;;;;1.48;0.60;;;;;;;19.99;75.31;99844.31;10504608;28;20058;-76
2023/07/30 03:49:39;;;;;;;1.80;0.90;;;;;;;19.95;75.05;99843.19;10501760;28;20049;-73
2023/07/30 03:54:41;;;;;;;2.80;0.90;;;;;;;19.90;74.99;99837.63;10499564;28;20151;-72
2023/07/30 03:59:42;;;;;;;3.58;0.63;;;;;;;19.94;74.74;99848.88;10504145;28;20300;-72
2023/07/30 04:04:44;;;;;;;1.98;0.98;;;;;;;19.91;74.82;99841.22;10501260;28;20301;-72
2023/07/30 04:09:46;;;;;;;5.18;1.17;;;;;;;19.90;74.71;99845.00;10502510;28;20348;-73
2023/07/30 04:14:47;;;;;;;2.15;1.10;;;;;;;19.81;74.62;99853.59;10502287;28;20287;-72
2023/07/30 04:19:48;;;;;;;2.15;1.30;;;;;;;19.83;75.17;99855.25;10497199;28;20067;-75
2023/07/30 04:24:50;;;;;;;2.33;1.15;;;;;;;19.91;75.07;99857.56;10502832;28;20302;-71
2023/07/30 04:29:51;;;;;;;2.53;1.73;;;;;;;19.95;75.08;99867.72;10502882;28;20376;-73
2023/07/30 04:34:53;;;;;;;1.80;1.33;;;;;;;19.93;74.83;99877.25;10509594;28;20051;-72
2023/07/30 04:39:54;;;;;;;2.65;1.38;;;;;;;19.91;74.94;99872.03;10501183;28;20054;-73
2023/07/30 04:44:56;;;;;;;1.63;1.10;;;;;;;19.90;74.96;99880.47;10497513;28;20112;-72
2023/07/30 04:49:57;;;;;;;3.78;1.60;;;;;;;19.91;75.38;99880.22;10502732;28;20058;-73
2023/07/30 04:54:58;;;;;;;3.05;2.15;;;;;;;19.97;75.08;99876.50;10504440;28;20076;-72
2023/07/30 05:00:00;;;;;;;4.18;1.63;;;;;;;20.00;75.04;99876.00;10502941;28;20058;-72
2023/07/30 05:05:01;;;;;;;2.58;1.60;;;;;;;20.05;75.27;99877.16;10501910;28;20265;-73
2023/07/30 05:10:06;;;;;;;4.05;1.70;;;;;;;20.10;75.19;99872.59;10497358;28;20055;-73
2023/07/30 05:15:08;;;;;;;3.30;1.42;;;;;;;20.16;75.67;99876.22;10481261;28;20047;-73
2023/07/30 05:20:10;;;;;;;2.08;1.58;;;;;;;20.18;75.34;99876.78;10501813;28;20119;-74
2023/07/30 05:25:11;;;;;;;1.90;1.35;;;;;;;20.21;75.77;99865.38;10499888;28;20245;-72
2023/07/30 05:30:12;;;;;;;1.75;1.02;;;;;;;20.27;75.36;99858.09;10506487;28;20120;-73
2023/07/30 05:35:14;;;;;;;5.88;1.40;;;;;;;20.24;76.16;99864.88;10495960;28;20107;-72
2023/07/30 05:40:16;;;;;;;1.90;1.13;;;;;;;20.37;75.39;99867.22;10497916;28;20341;-74
2023/07/30 05:45:17;;;;;;;2.05;0.80;;;;;;;20.45;75.17;99852.31;10499413;28;20040;-74
2023/07/30 05:50:20;;;;;;;2.70;0.68;;;;;;;20.40;75.13;99853.09;10499606;28;20120;-72
2023/07/30 05:55:21;;;;;;;1.42;0.90;;;;;;;20.53;75.22;99857.31;10499369;28;20115;-72
2023/07/30 06:00:24;;;;;;;1.35;0.85;;;;;;;20.62;75.06;99849.56;10496034;28;20048;-71
2023/07/30 06:05:25;;;;;;;1.90;0.70;;;;;;;20.64;74.63;99869.25;10498893;28;20048;-72
2023/07/30 06:10:26;;;;;;;1.58;0.60;;;;;;;20.69;74.79;99861.09;10496233;28;20255;-73
2023/07/30 06:15:28;;;;;;;3.63;0.70;;;;;;;20.65;74.62;99864.59;10497816;28;20112;-72
2023/07/30 06:20:30;;;;;;;1.35;0.70;;;;;;;20.70;74.88;99875.59;10497937;28;20060;-73
2023/07/30 06:25:31;;;;;;;3.28;0.70;;;;;;;20.86;73.89;99871.16;10500475;28;20060;-73
2023/07/30 06:30:33;;;;;;;3.45;0.60;;;;;;;21.17;73.90;99881.31;10494009;28;20226;-73
2023/07/30 06:35:34;;;;;;;3.30;0.68;;;;;;;21.30;73.05;99881.97;10499137;28;20056;-72
2023/07/30 06:40:35;;;;;;;0.90;0.40;;;;;;;21.44;72.70;99883.22;10498832;28;20116;-73
2023/07/30 06:45:37;;;;;;;1.10;0.80;;;;;;;21.67;71.96;99881.25;10493419;28;20048;-73
2023/07/30 06:50:39;;;;;;;1.92;0.40;;;;;;;21.65;71.72;99881.50;10493067;28;20052;-72
2023/07/30 06:55:40;;;;;;;0.63;0.43;;;;;;;21.64;71.39;99882.59;10499283;28;20056;-72
2023/07/30 07:00:41;;;;;;;1.38;0.40;;;;;;;21.78;70.84;99888.44;10506713;28;20055;-73
2023/07/30 07:05:43;;;;;;;1.20;0.28;;;;;;;21.76;70.45;99901.56;10503822;28;20067;-73
2023/07/30 07:10:45;;;;;;;2.35;0.50;;;;;;;21.98;69.92;99899.56;10504475;28;20043;-70
2023/07/30 07:15:47;;;;;;;1.35;0.30;;;;;;;21.92;69.22;99907.97;10502661;28;20197;-72
2023/07/30 07:20:48;;;;;;;0.55;0.32;;;;;;;21.84;68.73;99912.03;10502472;28;20037;-72
2023/07/30 07:25:51;;;;;;;2.22;0.40;;;;;;;21.96;68.10;99912.69;10502593;28;20119;-72
2023/07/30 07:30:54;;;;;;;1.63;0.50;;;;;;;22.02;67.30;99926.38;10497410;28;20408;-72
2023/07/30 07:36:03;;;;;;;2.80;0.30;;;;;;;21.93;66.86;99935.09;10504360;28;20036;-73
2023/07/30 07:41:05;;;;;;;1.05;0.55;;;;;;;22.07;66.14;99940.13;10496009;28;20099;-72
2023/07/30 07:46:13;;;;;;;0.93;0.40;;;;;;;22.03;66.26;99939.81;10503408;28;20506;-72
2023/07/30 07:51:14;;;;;;;1.08;0.20;;;;;;;22.13;65.03;99923.47;10496896;28;20047;-72
2023/07/30 07:56:15;;;;;;;0.50;0.30;;;;;;;22.33;64.41;99900.91;10504685;28;20048;-72
2023/07/30 08:01:17;;;;;;;2.53;0.30;;;;;;;22.76;64.18;99900.84;10511417;28;20059;-72
2023/07/30 08:06:18;;;;;;;1.88;0.30;;;;;;;23.24;62.82;99892.50;10498766;28;20214;-74
2023/07/30 08:11:20;;;;;;;2.17;0.30;;;;;;;23.47;62.16;99891.19;10501303;28;20052;-72
2023/07/30 08:16:22;;;;;;;1.52;0.30;;;;;;;23.62;61.79;99887.59;10502276;28;20049;-72
2023/07/30 08:21:23;;;;;;;1.00;0.40;;;;;;;23.83;60.86;99897.50;10500506;28;20226;-71
2023/07/30 08:26:25;;;;;;;1.85;0.20;;;;;;;23.94;60.33;99892.84;10502250;28;20116;-72
2023/07/30 08:31:26;;;;;;;0.77;0.30;;;;;;;24.14;60.39;99892.00;10498606;28;20052;-73
2023/07/30 08:36:27;;;;;;;0.63;0.40;;;;;;;24.07;60.04;99892.31;10501175;28;20044;-73
2023/07/30 08:41:29;;;;;;;0.65;0.30;;;;;;;24.10;59.40;99880.75;10501614;28;20060;-73
2023/07/30 08:46:30;;;;;;;2.15;0.30;;;;;;;24.33;59.35;99862.84;10504526;28;20056;-72
2023/07/30 08:51:36;;;;;;;1.00;0.40;;;;;;;24.60;58.83;99866.34;10497628;28;20037;-73
2023/07/30 08:56:38;;;;;;;1.37;0.30;;;;;;;24.65;58.57;99874.56;10494565;28;20052;-72
2023/07/30 09:01:40;;;;;;;1.00;0.40;;;;;;;24.60;57.87;99874.59;10509058;28;20285;-71
2023/07/30 09:06:42;;;;;;;0.57;0.30;;;;;;;24.61;57.35;99866.06;10499798;28;20052;-72
2023/07/30 09:11:51;;;;;;;0.98;0.40;;;;;;;24.66;57.39;99868.78;10500898;28;20053;-71
2023/07/30 09:16:58;;;;;;;0.50;0.30;;;;;;;24.70;57.22;99871.78;10498930;28;20143;-73
2023/07/30 09:22:04;;;;;;;1.00;0.30;;;;;;;24.88;57.39;99864.81;10496818;28;20120;-72
2023/07/30 09:27:06;;;;;;;2.25;0.47;;;;;;;24.69;57.64;99870.97;10500698;28;20048;-71
2023/07/30 09:32:07;;;;;;;0.90;0.60;;;;;;;24.10;59.09;99866.19;10499401;28;20595;-71
2023/07/30 09:37:09;;;;;;;1.90;0.60;;;;;;;23.58;61.53;99878.28;10502057;28;20032;-73
2023/07/30 09:42:10;;;;;;;1.52;0.93;;;;;;;22.50;64.98;99884.28;10499403;28;20044;-73
2023/07/30 09:47:12;;;;;;;1.20;0.70;;;;;;;21.42;68.40;99890.03;10496237;28;20113;-72
2023/07/30 09:52:14;;;;;;;2.72;0.85;;;;;;;20.56;71.36;99916.09;10499861;28;20116;-73
2023/07/30 09:57:15;;;;;;;4.72;1.00;;;;;;;19.84;73.96;99947.75;10501456;28;20063;-72
2023/07/30 10:02:18;;;;;;;0.30;0.10;;;;;;;19.10;75.96;99937.66;10508498;28;20071;-73
2023/07/30 10:07:23;;;;;;;0.00;0.00;;;;;;;18.78;75.94;99950.88;10499886;28;20075;-73
2023/07/30 10:12:31;;;;;;;0.00;0.00;;;;;;;18.69;75.67;99964.03;10496771;28;20076;-74
2023/07/30 10:17:33;;;;;;;0.00;0.00;;;;;;;18.32;76.79;100005.09;10513476;28;20040;-73
2023/07/30 10:22:39;;;;;;;0.00;0.00;;;;;;;18.21;77.33;100004.03;10500409;28;20041;-72
2023/07/30 10:27:43;;;;;;;0.00;0.00;;;;;;;18.18;77.48;100018.09;10498320;28;20063;-75
2023/07/30 10:33:08;;;;;;;0.00;0.00;;;;;;;18.29;77.31;100012.94;10504589;28;20352;-72
2023/07/30 10:38:18;;;;;;;0.00;0.00;;;;;;;18.57;77.06;100023.09;10507408;28;20135;-72
2023/07/30 10:43:20;;;;;;;0.00;0.00;;;;;;;18.68;77.17;100037.78;10503906;28;20037;-72
2023/07/30 10:48:35;;;;;;;0.00;0.00;;;;;;;18.82;76.88;100033.78;10504304;28;20072;-73
2023/07/30 10:53:36;;;;;;;0.00;0.00;;;;;;;19.16;76.89;100048.41;10517051;28;20120;-74
2023/07/30 10:58:38;;;;;;;0.00;0.00;;;;;;;19.54;76.54;100047.00;10504786;28;20040;-74
2023/07/30 11:03:39;;;;;;;0.00;0.00;;;;;;;20.05;75.53;100060.81;10504506;28;20509;-74
2023/07/30 11:08:42;;;;;;;0.00;0.00;;;;;;;20.38;73.97;100070.09;10504991;28;20048;-72
2023/07/30 11:13:48;;;;;;;0.00;0.00;;;;;;;20.46;72.21;100071.56;10506954;28;20441;-74
2023/07/30 11:18:50;;;;;;;0.00;0.00;;;;;;;20.65;71.08;100075.72;10506476;28;20084;-73
2023/07/30 11:23:52;;;;;;;0.00;0.00;;;;;;;20.90;70.96;100072.56;10500174;28;20055;-73
2023/07/30 11:28:54;;;;;;;0.00;0.00;;;;;;;20.73;67.24;100094.44;10502778;28;20055;-73
2023/07/30 11:33:55;;;;;;;0.00;0.00;;;;;;;20.56;66.69;100088.13;10505472;28;20371;-74
2023/07/30 11:38:57;;;;;;;0.00;0.00;;;;;;;20.56;67.14;100088.97;10498144;28;20064;-73
2023/07/30 11:43:59;;;;;;;0.38;0.28;;;;;;;20.56;65.04;100091.69;10502688;28;20100;-71
2023/07/30 11:49:16;;;;;;;0.00;0.00;;;;;;;20.55;64.05;100103.69;10501219;28;20112;-73
2023/07/30 11:54:23;;;;;;;0.00;0.00;;;;;;;20.43;62.40;100102.13;10511372;28;20068;-73
2023/07/30 11:59:24;;;;;;;0.68;0.13;;;;;;;20.44;62.62;100103.75;10504333;28;20060;-72
2023/07/30 12:04:30;;;;;;;3.63;0.30;;;;;;;20.59;62.37;100114.97;10503771;28;20353;-72
2023/07/30 12:09:35;;;;;;;4.78;1.05;;;;;;;20.91;62.48;100128.03;10500734;28;20056;-73
2023/07/30 12:14:48;;;;;;;1.08;0.20;;;;;;;21.24;62.13;100124.41;10502240;28;20068;-73
2023/07/30 12:19:50;;;;;;;1.60;0.95;;;;;;;21.37;61.26;100136.91;10503858;28;20062;-73
2023/07/30 12:24:51;;;;;;;1.85;0.40;;;;;;;21.47;61.83;100125.31;10503328;28;20115;-72
2023/07/30 12:29:53;;;;;;;1.20;0.30;;;;;;;21.49;61.82;100134.09;10503074;28;20052;-72
2023/07/30 12:34:54;;;;;;;2.22;0.30;;;;;;;21.62;62.24;100130.13;10498960;28;20116;-73
2023/07/30 12:39:56;;;;;;;3.00;0.32;;;;;;;21.79;60.93;100142.66;10502230;28;20055;-72
2023/07/30 12:44:57;;;;;;;2.15;0.30;;;;;;;21.94;60.09;100143.94;10502296;28;20064;-73
2023/07/30 12:49:58;;;;;;;1.10;0.20;;;;;;;22.30;58.23;100125.19;10509249;28;20052;-72
2023/07/30 12:55:01;;;;;;;2.70;0.20;;;;;;;22.77;54.63;100128.03;10501563;28;20340;-73
2023/07/30 13:00:04;;;;;;;3.10;0.20;;;;;;;23.06;52.15;100124.16;10496237;28;20048;-74
2023/07/30 13:05:06;;;;;;;2.22;0.20;;;;;;;23.38;49.28;100131.47;10501332;28;20232;-72
2023/07/30 13:10:08;;;;;;;2.40;0.20;;;;;;;23.36;48.62;100131.72;10500190;28;20111;-72
2023/07/30 13:15:10;;;;;;;0.80;0.40;;;;;;;23.54;48.84;100131.28;10500800;28;20107;-73
2023/07/30 13:20:11;;;;;;;1.85;0.45;;;;;;;23.56;48.96;100128.28;10500645;28;20047;-73
2023/07/30 13:25:13;;;;;;;6.28;1.17;;;;;;;23.56;47.19;100128.28;10498033;28;20040;-73
2023/07/30 13:30:14;;;;;;;3.50;0.20;;;;;;;23.60;46.42;100137.63;10501615;28;20052;-73
2023/07/30 13:35:16;;;;;;;1.02;0.30;;;;;;;24.03;45.92;100137.50;10498964;28;20044;-72
2023/07/30 13:40:17;;;;;;;4.60;0.30;;;;;;;24.22;45.28;100138.66;10500971;28;20107;-73
2023/07/30 13:45:19;;;;;;;2.92;0.20;;;;;;;23.79;45.70;100143.47;10499519;28;20052;-72
2023/07/30 13:50:20;;;;;;;3.75;0.32;;;;;;;23.90;47.23;100142.41;10494883;28;20068;-75
2023/07/30 13:55:22;;;;;;;2.80;0.30;;;;;;;23.75;46.96;100139.59;10504365;28;20427;-72
2023/07/30 14:00:23;;;;;;;1.67;0.22;;;;;;;24.07;46.86;100127.63;10498617;28;20044;-72
2023/07/30 14:05:25;;;;;;;2.58;0.40;;;;;;;25.59;46.45;100127.81;10501232;28;20052;-71
2023/07/30 14:10:27;;;;;;;1.65;0.50;;;;;;;26.50;44.77;100125.69;10509337;28;20070;-71
2023/07/30 14:15:28;;;;;;;2.35;0.30;;;;;;;27.30;43.45;100115.31;10503963;28;20482;-73
2023/07/30 14:20:30;;;;;;;2.83;0.50;;;;;;;27.18;43.91;100112.09;10508717;28;21045;-73
2023/07/30 14:25:32;;;;;;;2.50;0.30;;;;;;;27.74;42.35;100114.19;10507756;28;23268;-73
2023/07/30 14:30:35;;;;;;;1.52;0.30;;;;;;;26.71;42.60;100131.84;10506120;28;20131;-72
2023/07/30 14:35:38;;;;;;;1.35;0.20;;;;;;;25.71;41.39;100128.34;10507733;28;20044;-71
2023/07/30 14:40:39;;;;;;;1.17;0.30;;;;;;;25.38;41.80;100138.09;10502388;28;20356;-71
2023/07/30 14:45:40;;;;;;;2.88;0.20;;;;;;;25.05;41.23;100134.84;10507550;28;20103;-71
2023/07/30 14:50:42;;;;;;;1.20;0.20;;;;;;;25.46;41.08;100148.53;10507308;28;20048;-71
2023/07/30 14:55:43;;;;;;;1.98;0.43;;;;;;;25.47;40.33;100130.06;10500508;28;20062;-72
2023/07/30 15:00:45;;;;;;;1.40;0.25;;;;;;;26.00;39.10;100138.66;10508649;28;20060;-72
2023/07/30 15:05:46;;;;;;;1.92;0.20;;;;;;;25.90;39.15;100139.56;10499977;28;20052;-71
2023/07/30 15:10:48;;;;;;;3.13;0.30;;;;;;;25.98;38.58;100135.38;10505253;28;20236;-70
2023/07/30 15:15:49;;;;;;;2.92;0.20;;;;;;;26.05;38.38;100124.06;10510109;28;20056;-70
2023/07/30 15:20:50;;;;;;;4.38;0.30;;;;;;;26.25;38.31;100120.34;10503821;28;20055;-73
2023/07/30 15:25:52;;;;;;;2.75;0.93;;;;;;;26.41;38.43;100115.53;10504845;28;20061;-71
2023/07/30 15:30:54;;;;;;;4.78;0.40;;;;;;;26.58;37.77;100099.44;10501905;28;20051;-72
2023/07/30 15:35:55;;;;;;;1.65;0.20;;;;;;;26.39;37.13;100095.72;10505259;28;20052;-72
2023/07/30 15:40:58;;;;;;;2.15;0.30;;;;;;;26.42;36.90;100095.97;10506398;28;20071;-71
2023/07/30 15:46:01;;;;;;;3.78;0.30;;;;;;;26.41;36.29;100097.06;10492348;28;20036;-71
2023/07/30 15:51:03;;;;;;;3.17;0.20;;;;;;;26.58;36.61;100101.34;10504178;28;20075;-73
2023/07/30 15:56:06;;;;;;;2.00;0.57;;;;;;;26.68;35.82;100088.31;10499505;28;20349;-71
2023/07/30 16:01:11;;;;;;;1.77;0.30;;;;;;;26.80;35.87;100096.22;10501715;28;20040;-72
2023/07/30 16:06:13;;;;;;;0.90;0.20;;;;;;;26.68;35.50;100093.03;10502908;28;20036;-73
2023/07/30 16:11:14;;;;;;;0.98;0.20;;;;;;;26.66;35.37;100101.59;10505685;28;20726;-73
2023/07/30 16:16:20;;;;;;;2.58;0.55;;;;;;;27.03;35.32;100096.53;10503673;28;20137;-73
2023/07/30 16:21:21;;;;;;;1.83;0.37;;;;;;;27.33;35.05;100098.16;10497923;28;20135;-72
2023/07/30 16:26:23;;;;;;;2.42;0.25;;;;;;;27.32;34.37;100101.22;10502644;28;20075;-72
2023/07/30 16:31:24;;;;;;;1.95;0.20;;;;;;;26.80;34.76;100109.19;10504910;28;20115;-72
2023/07/30 16:36:26;;;;;;;1.33;0.20;;;;;;;26.87;34.72;100117.94;10500528;28;20118;-71
2023/07/30 16:41:27;;;;;;;2.33;0.30;;;;;;;26.94;34.12;100110.16;10501512;28;20063;-71
2023/07/30 16:46:30;;;;;;;1.92;0.25;;;;;;;26.80;34.38;100107.25;10498746;28;20715;-70
2023/07/30 16:51:31;;;;;;;2.35;0.30;;;;;;;26.83;34.64;100109.41;10501965;28;20059;-70
2023/07/30 16:56:33;;;;;;;2.50;0.22;;;;;;;27.07;34.18;100106.69;10501107;28;20409;-71
2023/07/30 17:01:34;;;;;;;2.92;0.30;;;;;;;26.69;34.75;100111.19;10500781;28;20116;-71
2023/07/30 17:06:36;;;;;;;1.33;0.20;;;;;;;27.06;33.94;100116.06;10501525;28;20056;-72
2023/07/30 17:11:38;;;;;;;4.25;0.20;;;;;;;27.23;34.46;100114.78;10496962;28;20493;-71
2023/07/30 17:16:41;;;;;;;2.50;0.30;;;;;;;27.00;34.06;100113.69;10495917;28;20083;-71
2023/07/30 17:21:43;;;;;;;1.95;0.43;;;;;;;26.97;34.62;100117.81;10501445;28;20168;-71
2023/07/30 17:26:44;;;;;;;2.28;0.32;;;;;;;26.63;34.56;100123.38;10503061;28;20145;-71
2023/07/30 17:31:46;;;;;;;1.10;0.32;;;;;;;26.47;34.76;100126.22;10501216;28;20080;-70
2023/07/30 17:36:47;;;;;;;3.63;0.30;;;;;;;26.30;35.17;100121.16;10496620;28;20059;-71
2023/07/30 17:41:48;;;;;;;1.58;0.45;;;;;;;26.07;35.60;100130.13;10498566;28;20107;-71
2023/07/30 17:46:50;;;;;;;3.53;0.63;;;;;;;25.75;35.85;100139.63;10499691;28;22683;-71
2023/07/30 17:51:51;;;;;;;2.78;0.47;;;;;;;25.27;36.56;100145.53;10499069;28;20116;-71
2023/07/30 17:56:53;;;;;;;2.80;0.30;;;;;;;24.94;37.44;100139.53;10500381;28;20056;-72
2023/07/30 18:01:56;;;;;;;1.25;0.20;;;;;;;24.74;37.72;100134.03;10493571;28;20036;-71
2023/07/30 18:06:57;;;;;;;3.25;0.50;;;;;;;24.49;37.87;100145.84;10498117;28;20071;-73
2023/07/30 18:11:59;;;;;;;3.15;0.20;;;;;;;24.13;38.79;100148.50;10500029;28;20302;-71
2023/07/30 18:17:00;;;;;;;2.40;0.20;;;;;;;24.03;38.91;100151.25;10500650;28;20127;-73
2023/07/30 18:22:02;;;;;;;1.90;0.30;;;;;;;23.92;39.23;100151.22;10500455;28;20093;-71
2023/07/30 18:27:03;;;;;;;2.85;0.30;;;;;;;23.88;39.08;100155.59;10496832;28;20045;-70
2023/07/30 18:32:06;;;;;;;2.88;0.20;;;;;;;23.88;39.66;100143.78;10500946;28;20071;-72
2023/07/30 18:37:08;;;;;;;4.70;0.55;;;;;;;23.78;39.94;100146.50;10499700;28;20067;-72
2023/07/30 18:42:09;;;;;;;1.25;0.20;;;;;;;23.59;40.51;100152.44;10498978;28;20273;-70
2023/07/30 18:47:11;;;;;;;1.73;0.20;;;;;;;23.48;40.57;100154.31;10498586;28;20066;-72
2023/07/30 18:52:12;;;;;;;1.95;0.32;;;;;;;23.24;41.47;100156.63;10497802;28;20067;-72
2023/07/30 18:57:15;;;;;;;2.70;0.30;;;;;;;23.23;40.95;100160.47;10507332;28;20045;-73
2023/07/30 19:02:17;;;;;;;1.58;0.28;;;;;;;22.99;41.63;100175.63;10506635;28;20112;-71
2023/07/30 19:07:18;;;;;;;2.33;0.70;;;;;;;22.97;42.09;100173.16;10505134;28;20086;-72
2023/07/30 19:12:20;;;;;;;1.90;0.40;;;;;;;22.87;42.45;100178.56;10506417;28;20044;-72
2023/07/30 19:17:23;;;;;;;2.33;0.40;;;;;;;22.79;42.30;100171.66;10502695;28;20066;-73
2023/07/30 19:22:25;;;;;;;1.05;0.30;;;;;;;22.81;42.22;100171.34;10505605;28;20044;-72
2023/07/30 19:27:26;;;;;;;2.72;0.38;;;;;;;22.76;42.79;100183.94;10505307;28;20059;-75
2023/07/30 19:32:29;;;;;;;3.65;0.30;;;;;;;22.70;42.78;100184.16;10505459;28;20287;-74
2023/07/30 19:37:31;;;;;;;2.35;0.50;;;;;;;22.62;43.20;100187.38;10507303;28;20139;-74
2023/07/30 19:42:33;;;;;;;3.75;0.40;;;;;;;22.52;43.27;100188.94;10502382;28;20048;-74
2023/07/30 19:47:34;;;;;;;0.93;0.25;;;;;;;22.41;43.16;100192.66;10504269;28;20060;-75
2023/07/30 19:52:36;;;;;;;2.10;0.50;;;;;;;22.43;43.75;100198.69;10505796;28;20060;-74
2023/07/30 19:57:38;;;;;;;2.30;0.38;;;;;;;22.46;44.00;100200.09;10505072;28;20044;-74
2023/07/30 20:02:39;;;;;;;3.15;0.40;;;;;;;22.46;44.22;100202.84;10504413;28;20292;-73
2023/07/30 20:07:44;;;;;;;2.88;0.40;;;;;;;22.30;44.36;100194.47;10496995;28;20044;-74
2023/07/30 20:12:45;;;;;;;1.00;0.30;;;;;;;22.21;44.58;100195.97;10504439;28;20048;-73
2023/07/30 20:17:47;;;;;;;2.65;0.52;;;;;;;22.21;44.99;100193.22;10498556;28;20111;-73
2023/07/30 20:22:48;;;;;;;2.38;0.30;;;;;;;22.14;45.05;100192.63;10504112;28;20055;-72
2023/07/30 20:27:50;;;;;;;1.45;0.57;;;;;;;22.13;45.20;100188.22;10503507;28;20066;-73
2023/07/30 20:32:52;;;;;;;6.07;0.55;;;;;;;22.16;45.45;100185.78;10501411;28;20249;-74
2023/07/30 20:37:56;;;;;;;1.35;0.30;;;;;;;22.16;44.99;100187.72;10501515;28;20052;-74
2023/07/30 20:42:58;;;;;;;3.45;0.77;;;;;;;22.16;45.55;100184.97;10501042;28;20048;-76
2023/07/30 20:47:59;;;;;;;2.22;1.02;;;;;;;22.14;45.44;100177.00;10503218;28;20059;-73
2023/07/30 20:53:01;;;;;;;1.85;0.45;;;;;;;22.10;45.40;100186.81;10503601;28;20041;-72
2023/07/30 20:58:02;;;;;;;2.45;0.70;;;;;;;22.05;45.79;100185.94;10497919;28;20082;-73
2023/07/30 21:03:03;;;;;;;3.33;0.30;;;;;;;21.94;46.26;100188.56;10498724;28;20044;-73
2023/07/30 21:08:05;;;;;;;2.90;0.20;;;;;;;21.87;46.34;100187.91;10500515;28;20070;-72
2023/07/30 21:13:07;;;;;;;6.50;1.30;;;;;;;21.92;46.27;100188.00;10501072;28;20127;-73
2023/07/30 21:18:08;;;;;;;2.85;0.30;;;;;;;21.82;46.41;100184.28;10499746;28;20053;-73
2023/07/30 21:23:10;;;;;;;3.53;0.52;;;;;;;21.84;46.45;100182.97;10497251;28;20240;-72
2023/07/30 21:28:11;;;;;;;0.93;0.38;;;;;;;21.86;46.26;100183.53;10502197;28;20160;-73
2023/07/30 21:33:13;;;;;;;3.25;0.55;;;;;;;21.84;46.12;100188.44;10500664;28;20076;-73
2023/07/30 21:38:14;;;;;;;1.90;0.40;;;;;;;21.85;46.42;100176.41;10496346;28;20056;-73
2023/07/30 21:43:15;;;;;;;1.98;0.52;;;;;;;21.83;46.54;100175.81;10501196;28;20048;-73
2023/07/30 21:48:17;;;;;;;2.65;0.40;;;;;;;21.76;46.43;100170.56;10497646;28;20179;-75
2023/07/30 21:53:19;;;;;;;2.00;0.40;;;;;;;21.78;46.59;100167.53;10500098;28;20052;-73
2023/07/30 21:58:20;;;;;;;3.05;0.38;;;;;;;21.83;46.27;100167.63;10501269;28;20063;-72
2023/07/30 22:03:23;;;;;;;1.98;0.30;;;;;;;21.73;46.65;100156.56;10497875;28;20057;-72
2023/07/30 22:08:24;;;;;;;2.67;0.38;;;;;;;21.75;46.47;100151.66;10497406;28;20081;-72
2023/07/30 22:13:26;;;;;;;3.53;0.50;;;;;;;21.63;46.94;100157.25;10497975;28;20364;-72
2023/07/30 22:18:27;;;;;;;1.90;0.30;;;;;;;21.63;47.21;100159.97;10499302;28;20064;-73
2023/07/30 22:23:28;;;;;;;2.45;0.30;;;;;;;21.55;47.34;100155.78;10500296;28;20064;-72
2023/07/30 22:28:31;;;;;;;2.63;0.30;;;;;;;21.38;47.43;100154.97;10504441;28;20089;-72
2023/07/30 22:33:32;;;;;;;4.18;0.35;;;;;;;21.46;47.43;100142.78;10509036;28;20048;-73
2023/07/30 22:38:34;;;;;;;0.82;0.45;;;;;;;21.43;47.59;100137.81;10504684;28;20052;-72
2023/07/30 22:43:35;;;;;;;2.72;0.55;;;;;;;21.41;48.17;100140.78;10509756;28;20116;-72
2023/07/30 22:48:36;;;;;;;1.23;0.28;;;;;;;21.37;48.26;100132.25;10508130;28;20330;-74
2023/07/30 22:53:38;;;;;;;1.83;0.30;;;;;;;21.36;48.05;100133.34;10507418;28;20037;-73
2023/07/30 22:58:39;;;;;;;2.95;0.35;;;;;;;21.28;48.46;100130.22;10507154;28;20068;-74
2023/07/30 23:03:41;;;;;;;3.42;0.50;;;;;;;21.25;48.68;100128.81;10502768;28;20120;-73
2023/07/30 23:08:43;;;;;;;1.00;0.30;;;;;;;21.18;49.22;100120.78;10504930;28;20059;-74
2023/07/30 23:13:44;;;;;;;2.03;0.30;;;;;;;21.12;49.44;100120.97;10507029;28;20072;-75
2023/07/30 23:18:45;;;;;;;6.07;0.77;;;;;;;21.04;49.73;100108.56;10505903;28;20075;-73